AIRPORT MAP

 RUNWAY INFORMATION

Runway 01L Runway length 10830 ft Runway width 148 ft
Runway elevation 98 ft Runway displaced threshold 0 ft Runway heading 10
Runway 19R Runway length 10830 ft Runway width 148 ft
Runway elevation 118 ft Runway displaced threshold 0 ft Runway heading 190
Runway 01R Runway length 8201 ft Runway width 148 ft
Runway elevation 137 ft Runway displaced threshold 0 ft Runway heading 10
Runway 19L Runway length 8201 ft Runway width 148 ft
Runway elevation 98 ft Runway displaced threshold 0 ft Runway heading 190
Runway 08 Runway length 8202 ft Runway width 148 ft
Runway elevation 108 ft Runway displaced threshold 0 ft Runway heading 76
Runway 26 Runway length 8202 ft Runway width 148 ft
Runway elevation 124 ft Runway displaced threshold 0 ft Runway heading 256

 AIRPORT FREQUENCIES

Type APP Name STOCKHOLM Frequency 123.75 MHZ
Type ATIS Name ATIS Frequency 119 MHZ
Type CLD Name CLNC DEL Frequency 121.825 MHZ
Type GND Name GND Frequency 121.7 MHZ
Type PMSV Name MET OFFICE Frequency 122.6 MHZ
Type TWR Name TWR Frequency 118.5 MHZ

 AIRPORT NEAR NAVIGATION AIDS

Type VOR-DME Name Arlanda Frequency 116000 KHZ
Type NDB Name Arlanda Frequency 352 KHZ
Type NDB Name Arlanda Frequency 360 KHZ
Type NDB Name Arlanda Frequency 404 KHZ
Type NDB Name Arlanda Frequency 370 KHZ

 METAR AND TAF INFORMATION

METAR FOR ESSA
ADDS - METARS form results

(2019 UTC 22 February 2020)
Data provider http://aviationweather.gov/metar/data/
 
METAR text: ESSA 221950Z 25021KT CAVOK 04/M02 Q0980 R01L/19//95 R08/19//95 R01R/29//95 NOSIG
Conditions at: ESSA (STOCKHOLM/ARLAND, SE) observed 1950 UTC 22 February 2020
Temperature: 4.0°C (39°F)
Dewpoint: -2.0°C (28°F) [RH = 65%]
Pressure (altimeter): 28.94 inches Hg (980.0 mb)
Winds: from the WSW (250 degrees) at 24 MPH (21 knots; 10.8 m/s)
Visibility: 6 or more miles (10+ km)
Ceiling: ceiling and visibility are OK
Clouds: unknown
Weather: no significant weather observed at this time

METAR text: ESSA 221920Z 25021G32KT CAVOK 04/M02 Q0979 R01L/29//95 R08/29//95 R01R/29//95 NOSIG
Conditions at: ESSA (STOCKHOLM/ARLAND, SE) observed 1920 UTC 22 February 2020
Temperature: 4.0°C (39°F)
Dewpoint: -2.0°C (28°F) [RH = 65%]
Pressure (altimeter): 28.91 inches Hg (979.0 mb)
Winds: from the WSW (250 degrees) at 24 MPH (21 knots; 10.8 m/s)
gusting to 37 MPH (32 knots; 16.5 m/s)
Visibility: 6 or more miles (10+ km)
Ceiling: ceiling and visibility are OK
Clouds: unknown
Weather: no significant weather observed at this time

Forecast for: ESSA (STOCKHOLM/ARLAND, SE)
Text: TAF ESSA 221730Z 2218/2318 25015G25KT CAVOK
Forecast period: 1800 UTC 22 February 2020 to 1800 UTC 23 February 2020
Forecast type: FROM: standard forecast or significant change
Winds: from the WSW (250 degrees) at 17 MPH (15 knots; 7.7 m/s)
gusting to 29 MPH (25 knots; 12.9 m/s)
Visibility: 6 or more miles 10+ km)
Ceiling: unknown
Clouds: missing
Weather: NSW  (no significant weather)